Airfield :
LOGIN :

Register | Disclaimer

   EN    FR    IT 

 










Legend :    VFR   Marginal VFR   IFR   Intensive IFR   Very Intensive IFR
Visi :
Ceiling :
>= 8 km
>= 3000ft
5 to 8 km
1000 to 3000 ft
1500m to 5 km
500 to 1000 ft
800 to 1500m
200 to 500 ft
< 800m
< 200 ft
Symbols :   Thunderstorms  Fog  Heavy snow  Heavy precipitations  Wind > 20 kt
SIGMETs :     Misc.  Thunderstorms  Icing  Turbulence  Mountain Waves  Volcanic Ashes






- Airport Elevation : 270 ft
- IATA code : OXF


EGTK - Oxford (Kidlington)

CURRENT METAR :
  • 162120Z 35005KT 6000 VCSH BKN021 17/17 Q1010

EXPIRED METARs :
  • 162050Z 34005KT 6000 VCSH FEW021 SCT028CB 17/16 Q1009
  • 162020Z 36005KT 6000 -RA SCT034 BKN048CB 17/16 Q1009
  • 161950Z 36005KT 8000 -RA FEW024 SCT065CB 17/16 Q1009
  • 161920Z 34007KT 6000 -SHRA FEW024 17/16 Q1009

Expired Forecast.



MET'MAP, your aeronautical weather chart ! - Copyright ORBIFLY December 2007 - Disclaimer

ORBIFLY MET'MAP TEAM :

Programming & Development : Alexandra Zaïnal
Original concept : Baudouin d'Aumeries
Technical & hardware support : Manuel Goepfert
Assistance : Marc-Olivier Méhu




SOURCES & CREDITS :

   NOAA